• images/banner/banner1.jpg
  • images/banner/banner2.jpg

Team Member Login

Aviation Weather

[source: ADDS]
METAR
EGVN 210350Z 20005KT 9999 SCT012 08/06 Q1021 GRN TEMPO FEW012 BLU =
TAF EGVN 210131Z 2103/2203 22007KT 9999 FEW020 PROB40 2103/2111 BKN014 TEMPO 2111/2114 BKN020 BECMG 2119/2121 BKN008 PROB40 2121/2124 BKN005 BECMG 2200/2203 7000 BR BKN004 PROB30 2201/2203 2500 BKN002
TAF
TAF EGVN 210131Z 2103/2203 22007KT 9999 FEW020 PROB40 2103/2111 BKN014 TEMPO 2111/2114 BKN020 BECMG 2119/2121 BKN008 PROB40 2121/2124 BKN005 BECMG 2200/2203 7000 BR BKN004 PROB30 2201/2203 2500 BKN002 =